Time;durP1;ratioP1;P1;durP2;ratioP2;P2;SDS_P1;SDS_P2;PMS_P1;PMS_P2;Temp;Humidity;BMP_temperature;BMP_pressure;BME280_temperature;BME280_humidity;BME280_pressure;Samples;Min_cycle;Max_cycle;Signal;HPM_P1;HPM_P2
2021/07/07 00:02:25;;;;;;;5.80;2.57;;;14.50;1.00;;;;;;4975653;28;20230;-62
2021/07/07 00:04:52;;;;;;;5.97;2.57;;;14.50;1.00;;;;;;4974559;28;20653;-62
2021/07/07 00:07:20;;;;;;;4.20;2.10;;;14.50;1.00;;;;;;4975730;28;20267;-62
2021/07/07 00:09:47;;;;;;;6.00;2.10;;;14.50;1.00;;;;;;4975310;28;20679;-60
2021/07/07 00:12:13;;;;;;;3.83;2.00;;;14.50;1.00;;;;;;4975544;28;20267;-62
2021/07/07 00:14:40;;;;;;;7.67;2.63;;;14.50;1.00;;;;;;4974425;28;20239;-62
2021/07/07 00:17:07;;;;;;;6.17;2.40;;;14.50;1.00;;;;;;4975168;28;20234;-62
2021/07/07 00:19:33;;;;;;;4.43;2.43;;;14.50;1.00;;;;;;4975197;28;20212;-62
2021/07/07 00:22:00;;;;;;;5.43;2.50;;;14.50;1.00;;;;;;4975288;28;20231;-61
2021/07/07 00:24:29;;;;;;;4.13;2.60;;;14.50;1.00;;;;;;4974830;28;20216;-62
2021/07/07 00:26:56;;;;;;;6.27;2.90;;;14.50;1.00;;;;;;4975026;28;20235;-62
2021/07/07 00:29:23;;;;;;;7.60;2.60;;;14.50;1.00;;;;;;4975326;28;20208;-61
2021/07/07 00:31:49;;;;;;;5.87;2.50;;;14.40;1.00;;;;;;4975107;28;20673;-62
2021/07/07 00:34:16;;;;;;;4.47;2.40;;;14.50;1.00;;;;;;4975000;28;20636;-62
2021/07/07 00:36:42;;;;;;;8.33;2.60;;;14.40;1.00;;;;;;4975247;28;20228;-61
2021/07/07 00:39:09;;;;;;;6.90;2.80;;;14.40;13.20;;;;;;4973935;28;20688;-61
2021/07/07 00:41:37;;;;;;;9.67;2.80;;;14.40;84.80;;;;;;4974937;28;20227;-62
2021/07/07 00:44:04;;;;;;;5.57;2.70;;;14.30;99.90;;;;;;4974521;28;20216;-61
2021/07/07 00:46:31;;;;;;;4.33;2.93;;;14.30;99.90;;;;;;4973818;28;20243;-62
2021/07/07 00:48:57;;;;;;;7.97;2.40;;;14.30;99.90;;;;;;4974582;28;20220;-61
2021/07/07 00:51:24;;;;;;;5.00;2.60;;;14.40;99.90;;;;;;4974974;28;20271;-60
2021/07/07 00:53:52;;;;;;;7.60;2.80;;;14.30;99.90;;;;;;4974507;28;20208;-61
2021/07/07 00:56:19;;;;;;;5.80;2.90;;;14.30;99.90;;;;;;4974455;28;20232;-61
2021/07/07 00:58:52;;;;;;;9.93;2.60;;;14.30;99.90;;;;;;4974648;28;20210;-60
2021/07/07 01:01:19;;;;;;;6.57;2.40;;;14.30;99.90;;;;;;4974044;28;20274;-60
2021/07/07 01:03:46;;;;;;;6.43;2.40;;;14.40;99.90;;;;;;4973798;28;20644;-62
2021/07/07 01:06:12;;;;;;;5.97;2.50;;;14.30;99.90;;;;;;4974167;28;20716;-61
2021/07/07 01:08:39;;;;;;;4.87;2.60;;;14.30;99.90;;;;;;4974605;28;20218;-60
2021/07/07 01:11:05;;;;;;;8.57;2.77;;;14.40;99.90;;;;;;4974082;28;20342;-61
2021/07/07 01:13:33;;;;;;;6.47;2.70;;;14.30;99.90;;;;;;4974012;28;20677;-61
2021/07/07 01:16:05;;;;;;;4.17;2.73;;;14.30;99.90;;;;;;4973989;28;20239;-62
2021/07/07 01:18:32;;;;;;;6.87;2.63;;;14.30;99.90;;;;;;4974539;28;20236;-62
2021/07/07 01:20:58;;;;;;;5.20;2.77;;;14.30;99.90;;;;;;4974073;28;20228;-61
2021/07/07 01:23:26;;;;;;;4.40;2.80;;;14.30;99.90;;;;;;4974052;28;20553;-61
2021/07/07 01:25:53;;;;;;;6.27;2.83;;;14.30;99.90;;;;;;4973668;28;20726;-59
2021/07/07 01:28:21;;;;;;;7.57;2.77;;;14.20;99.90;;;;;;4973811;28;20303;-61
2021/07/07 01:30:47;;;;;;;5.67;2.73;;;14.20;99.90;;;;;;4973315;28;20983;-61
2021/07/07 01:33:14;;;;;;;6.37;2.67;;;14.20;99.90;;;;;;4973563;28;20747;-61
2021/07/07 01:35:41;;;;;;;5.93;3.17;;;14.10;1.00;;;;;;4973861;28;20277;-61
2021/07/07 01:38:08;;;;;;;7.13;2.83;;;14.10;1.00;;;;;;4973848;28;20215;-62
2021/07/07 01:40:36;;;;;;;5.53;3.17;;;14.10;1.00;;;;;;4973519;28;20263;-61
2021/07/07 01:43:03;;;;;;;7.47;2.73;;;14.00;1.00;;;;;;4973608;28;20257;-62
2021/07/07 01:45:30;;;;;;;10.20;3.40;;;14.00;1.00;;;;;;4973659;28;20235;-62
2021/07/07 01:47:57;;;;;;;8.10;3.27;;;14.00;1.00;;;;;;4973808;28;20215;-60
2021/07/07 01:50:25;;;;;;;10.50;3.40;;;13.90;1.00;;;;;;4972907;28;20659;-61
2021/07/07 01:52:55;;;;;;;9.27;3.00;;;13.90;16.60;;;;;;4973650;28;20208;-62
2021/07/07 01:55:25;;;;;;;8.33;3.63;;;13.90;40.60;;;;;;4973388;28;20210;-60
2021/07/07 01:57:53;;;;;;;7.33;3.43;;;13.80;99.90;;;;;;4972801;28;20335;-61
2021/07/07 02:00:23;;;;;;;5.63;3.23;;;13.80;99.90;;;;;;4973494;28;20219;-61
2021/07/07 02:02:52;;;;;;;10.00;3.20;;;13.80;99.90;;;;;;4973549;28;20234;-61
2021/07/07 02:05:22;;;;;;;8.73;3.20;;;13.80;99.90;;;;;;4973363;28;20210;-62
2021/07/07 02:07:48;;;;;;;8.83;3.90;;;13.80;99.90;;;;;;4973214;28;20235;-62
2021/07/07 02:10:17;;;;;;;11.10;3.40;;;13.70;1.00;;;;;;4973129;28;20943;-61
2021/07/07 02:12:44;;;;;;;9.07;3.20;;;13.80;1.00;;;;;;4973348;28;20668;-61
2021/07/07 02:15:15;;;;;;;10.17;3.80;;;13.80;1.00;;;;;;4973235;28;20684;-62
2021/07/07 02:17:42;;;;;;;10.27;3.73;;;13.80;1.00;;;;;;4973299;28;20242;-61
2021/07/07 02:20:11;;;;;;;10.13;3.50;;;13.80;1.00;;;;;;4973329;28;20583;-62
2021/07/07 02:22:38;;;;;;;10.07;4.03;;;13.80;1.00;;;;;;4972070;28;20240;-62
2021/07/07 02:25:05;;;;;;;9.60;3.60;;;13.80;1.00;;;;;;4973081;28;20354;-61
2021/07/07 02:27:32;;;;;;;9.27;3.33;;;13.90;1.00;;;;;;4972880;28;20782;-61
2021/07/07 02:29:59;;;;;;;8.73;3.50;;;13.80;1.00;;;;;;4973407;28;20218;-62
2021/07/07 02:32:27;;;;;;;6.53;3.33;;;13.90;1.00;;;;;;4972943;28;20256;-62
2021/07/07 02:34:54;;;;;;;6.70;3.17;;;13.90;1.00;;;;;;4972926;28;20216;-62
2021/07/07 02:37:21;;;;;;;8.43;3.57;;;13.90;1.00;;;;;;4973286;28;20235;-62
2021/07/07 02:39:48;;;;;;;8.77;3.00;;;13.90;1.00;;;;;;4977319;28;20593;-60
2021/07/07 02:42:16;;;;;;;10.40;3.40;;;13.90;1.00;;;;;;4977277;28;20232;-61
2021/07/07 02:44:43;;;;;;;8.60;3.70;;;13.90;1.00;;;;;;4976469;28;20211;-62
2021/07/07 02:47:10;;;;;;;11.13;3.60;;;13.90;1.00;;;;;;4976963;28;20289;-60
2021/07/07 02:49:38;;;;;;;11.00;3.33;;;13.90;1.00;;;;;;4976678;28;20210;-62
2021/07/07 02:52:05;;;;;;;6.27;3.30;;;13.90;1.00;;;;;;4977075;28;20235;-62
2021/07/07 02:54:32;;;;;;;10.33;3.40;;;13.90;1.00;;;;;;4976513;28;20211;-62
2021/07/07 02:56:58;;;;;;;8.27;3.67;;;13.80;1.00;;;;;;4976935;28;20289;-61
2021/07/07 02:59:25;;;;;;;8.87;3.33;;;13.80;1.00;;;;;;4976839;28;20207;-61
2021/07/07 03:01:52;;;;;;;6.47;3.37;;;13.80;1.00;;;;;;4975122;28;20227;-61
2021/07/07 03:04:18;;;;;;;8.30;3.30;;;13.80;1.00;;;;;;4975430;28;20263;-59
2021/07/07 03:06:46;;;;;;;11.70;3.33;;;13.80;1.00;;;;;;4975271;28;20239;-61
2021/07/07 03:09:13;;;;;;;8.03;3.40;;;13.80;1.00;;;;;;4976298;28;20775;-61
2021/07/07 03:11:39;;;;;;;9.97;3.50;;;13.90;1.00;;;;;;4976507;28;20261;-62
2021/07/07 03:14:06;;;;;;;7.63;3.10;;;13.90;1.00;;;;;;4976603;28;20215;-60
2021/07/07 03:16:33;;;;;;;11.60;3.87;;;13.90;1.00;;;;;;4976272;28;20235;-62
2021/07/07 03:19:00;;;;;;;7.87;3.57;;;13.90;1.00;;;;;;4976659;28;20273;-62
2021/07/07 03:21:26;;;;;;;11.83;3.53;;;13.90;1.00;;;;;;4976517;28;20229;-61
2021/07/07 03:23:54;;;;;;;7.70;3.83;;;13.80;1.00;;;;;;4976202;28;20824;-62
2021/07/07 03:26:21;;;;;;;9.30;3.07;;;13.80;1.00;;;;;;4976471;28;20230;-62
2021/07/07 03:28:48;;;;;;;5.53;3.20;;;13.90;1.00;;;;;;4975516;28;20219;-61
2021/07/07 03:31:14;;;;;;;10.20;3.20;;;13.90;1.00;;;;;;4976201;28;20213;-61
2021/07/07 03:33:41;;;;;;;8.40;2.97;;;13.90;1.00;;;;;;4976114;28;20213;-61
2021/07/07 03:36:08;;;;;;;9.73;2.80;;;13.90;1.00;;;;;;4975958;28;20300;-62
2021/07/07 03:38:34;;;;;;;10.87;3.57;;;13.90;1.00;;;;;;4976082;28;20215;-62
2021/07/07 03:41:03;;;;;;;9.53;3.20;;;13.90;1.00;;;;;;4975984;28;20216;-62
2021/07/07 03:43:29;;;;;;;9.93;3.27;;;13.80;1.00;;;;;;4975659;28;20226;-61
2021/07/07 03:45:56;;;;;;;7.60;3.33;;;13.80;1.00;;;;;;4974896;28;20230;-61
2021/07/07 03:48:23;;;;;;;9.90;3.07;;;13.90;1.00;;;;;;4975826;28;20213;-61
2021/07/07 03:50:49;;;;;;;8.63;3.07;;;13.90;1.00;;;;;;4976107;28;20211;-60
2021/07/07 03:53:16;;;;;;;9.63;3.37;;;13.90;1.00;;;;;;4975711;28;20210;-61
2021/07/07 03:55:43;;;;;;;7.40;3.67;;;13.90;1.00;;;;;;4975441;28;20674;-61
2021/07/07 03:58:11;;;;;;;9.73;3.40;;;13.90;1.00;;;;;;4975684;28;20281;-61
2021/07/07 04:00:37;;;;;;;10.43;3.67;;;13.90;1.00;;;;;;4975544;28;20219;-61
2021/07/07 04:03:06;;;;;;;8.43;3.47;;;13.90;1.00;;;;;;4975567;28;20648;-60
2021/07/07 04:05:33;;;;;;;10.73;3.20;;;13.90;1.00;;;;;;4974506;28;20211;-62
2021/07/07 04:08:00;;;;;;;6.97;2.93;;;13.90;1.00;;;;;;4975694;28;20219;-62
2021/07/07 04:10:27;;;;;;;7.50;3.00;;;14.00;1.00;;;;;;4975314;28;20672;-61
2021/07/07 04:12:54;;;;;;;9.23;3.37;;;14.00;1.00;;;;;;4974629;28;20230;-61
2021/07/07 04:15:22;;;;;;;7.90;3.50;;;14.00;1.00;;;;;;4975378;28;20216;-61
2021/07/07 04:17:49;;;;;;;7.77;2.77;;;14.10;1.00;;;;;;4975552;28;20577;-61
2021/07/07 04:20:17;;;;;;;11.10;3.90;;;14.10;1.00;;;;;;4975463;28;20216;-62
2021/07/07 04:22:44;;;;;;;8.20;4.10;;;14.10;1.00;;;;;;4974469;28;20233;-62
2021/07/07 04:25:13;;;;;;;10.10;4.83;;;14.20;1.00;;;;;;4973982;28;20215;-61
2021/07/07 04:27:40;;;;;;;10.20;3.77;;;14.20;1.00;;;;;;4973649;28;20281;-62
2021/07/07 04:30:10;;;;;;;12.17;3.90;;;14.30;1.00;;;;;;4975279;28;20211;-61
2021/07/07 04:32:38;;;;;;;7.47;3.03;;;14.40;99.90;;;;;;4975348;28;20244;-62
2021/07/07 04:35:06;;;;;;;8.80;3.80;;;14.40;99.90;;;;;;4975150;28;20208;-62
2021/07/07 04:37:33;;;;;;;6.30;3.40;;;14.50;99.90;;;;;;4974859;28;20232;-62
2021/07/07 04:40:00;;;;;;;8.33;3.07;;;14.50;99.90;;;;;;4973876;28;20211;-62
2021/07/07 04:42:26;;;;;;;7.50;3.43;;;14.60;99.90;;;;;;4973117;28;20279;-61
2021/07/07 04:44:53;;;;;;;7.30;3.13;;;14.70;99.90;;;;;;4974636;28;20668;-64
2021/07/07 04:47:20;;;;;;;7.83;2.83;;;14.70;94.60;;;;;;4981605;28;20224;-62
2021/07/07 04:49:47;;;;;;;5.67;2.90;;;14.80;1.00;;;;;;4986321;28;20208;-63
2021/07/07 04:52:14;;;;;;;10.57;3.67;;;14.90;1.00;;;;;;4994243;28;20257;-63
2021/07/07 04:54:41;;;;;;;7.67;3.00;;;15.00;1.00;;;;;;4993702;28;20621;-63
2021/07/07 04:57:07;;;;;;;7.77;2.97;;;15.10;1.00;;;;;;4994158;28;20302;-62
2021/07/07 04:59:34;;;;;;;9.50;2.90;;;15.10;99.90;;;;;;4994007;28;20246;-63
2021/07/07 05:02:01;;;;;;;6.20;2.70;;;15.20;99.90;;;;;;4985155;28;20267;-63
2021/07/07 05:04:27;;;;;;;7.50;2.90;;;15.30;99.90;;;;;;4974268;28;20278;-63
2021/07/07 05:06:55;;;;;;;8.30;2.83;;;15.30;99.90;;;;;;4974510;28;20236;-62
2021/07/07 05:09:23;;;;;;;10.20;3.20;;;15.40;99.90;;;;;;4974645;28;20283;-62
2021/07/07 05:11:50;;;;;;;11.30;2.90;;;15.50;99.90;;;;;;4974242;28;20677;-64
2021/07/07 05:14:16;;;;;;;6.30;2.90;;;15.50;99.90;;;;;;4974272;28;20208;-63
2021/07/07 05:16:47;;;;;;;10.83;3.00;;;15.60;99.90;;;;;;4970593;28;20236;-61
2021/07/07 05:19:13;;;;;;;10.83;3.13;;;15.70;99.90;;;;;;4970793;28;20220;-63
2021/07/07 05:21:42;;;;;;;9.57;2.67;;;15.70;1.00;;;;;;4970630;28;20223;-60
2021/07/07 05:24:10;;;;;;;10.30;3.20;;;15.80;1.00;;;;;;4970708;28;20731;-61
2021/07/07 05:26:36;;;;;;;8.10;2.80;;;15.90;1.00;;;;;;4970472;28;20236;-62
2021/07/07 05:29:03;;;;;;;8.97;2.47;;;15.90;1.00;;;;;;4970884;28;20291;-62
2021/07/07 05:31:30;;;;;;;11.60;2.93;;;16.00;1.00;;;;;;4970606;28;20353;-63
2021/07/07 05:33:57;;;;;;;5.83;2.67;;;16.10;1.00;;;;;;4970538;28;20636;-62
2021/07/07 05:36:23;;;;;;;8.07;3.07;;;16.20;99.90;;;;;;4970184;28;20240;-62
2021/07/07 05:38:50;;;;;;;8.10;2.77;;;16.40;99.90;;;;;;4969347;28;20212;-65
2021/07/07 05:41:18;;;;;;;6.63;2.57;;;16.50;99.90;;;;;;4970369;28;20216;-63
2021/07/07 05:43:46;;;;;;;11.43;2.83;;;16.70;99.90;;;;;;4969837;28;20278;-63
2021/07/07 05:46:12;;;;;;;7.50;2.60;;;16.80;99.90;;;;;;4970284;28;20240;-63
2021/07/07 05:48:39;;;;;;;7.00;2.50;;;16.90;99.90;;;;;;4969704;28;20759;-61
2021/07/07 05:51:06;;;;;;;6.33;2.50;;;17.00;99.90;;;;;;4970386;28;20286;-62
2021/07/07 05:53:33;;;;;;;8.00;2.20;;;17.10;46.90;;;;;;4970198;28;20222;-63
2021/07/07 05:56:00;;;;;;;7.90;2.70;;;17.20;98.50;;;;;;4970090;28;20616;-62
2021/07/07 05:58:28;;;;;;;8.13;2.27;;;17.20;18.00;;;;;;4969938;28;20263;-63
2021/07/07 06:00:54;;;;;;;6.37;2.33;;;17.30;1.00;;;;;;4969883;28;20216;-62
2021/07/07 06:03:21;;;;;;;7.60;2.50;;;17.30;1.00;;;;;;4969836;28;20228;-62
2021/07/07 06:05:48;;;;;;;10.03;2.27;;;17.30;1.00;;;;;;4969779;28;20215;-63
2021/07/07 06:08:14;;;;;;;9.30;2.77;;;17.40;1.00;;;;;;4975823;28;20203;-62
2021/07/07 06:10:43;;;;;;;9.50;2.43;;;17.50;1.00;;;;;;4989205;28;20270;-64
2021/07/07 06:13:10;;;;;;;8.00;2.10;;;17.60;1.00;;;;;;4988580;28;20660;-63
2021/07/07 06:15:38;;;;;;;7.67;2.70;;;17.70;1.00;;;;;;4986198;28;20211;-65
2021/07/07 06:18:05;;;;;;;11.53;3.20;;;17.70;1.00;;;;;;4989125;28;20215;-66
2021/07/07 06:20:32;;;;;;;8.27;2.80;;;17.80;1.00;;;;;;4985318;28;20263;-64
2021/07/07 06:22:59;;;;;;;10.73;2.33;;;17.80;1.00;;;;;;4972840;28;20224;-64
2021/07/07 06:25:26;;;;;;;7.20;2.30;;;17.90;1.00;;;;;;4972641;28;20215;-64
2021/07/07 06:27:54;;;;;;;7.60;2.27;;;18.10;1.00;;;;;;4972763;28;20283;-64
2021/07/07 06:30:24;;;;;;;7.33;2.10;;;18.20;1.00;;;;;;4972418;28;20218;-63
2021/07/07 06:32:53;;;;;;;7.83;2.10;;;18.40;1.00;;;;;;4972931;28;20572;-63
2021/07/07 06:35:21;;;;;;;6.17;2.40;;;18.60;1.00;;;;;;4973021;28;20204;-65
2021/07/07 06:37:50;;;;;;;7.27;2.37;;;18.80;1.00;;;;;;4971381;28;20232;-66
2021/07/07 06:40:17;;;;;;;8.47;2.10;;;19.00;1.00;;;;;;4972503;28;20209;-66
2021/07/07 06:42:45;;;;;;;9.37;2.50;;;19.00;1.00;;;;;;4972567;28;20224;-63
2021/07/07 06:45:13;;;;;;;7.00;2.30;;;19.10;1.00;;;;;;4972434;28;20216;-65
2021/07/07 06:47:40;;;;;;;5.93;2.13;;;19.20;99.90;;;;;;4972767;28;20232;-65
2021/07/07 06:50:36;;;;;;;5.53;2.60;;;19.20;99.90;;;;;;4972489;28;20208;-63
2021/07/07 06:53:03;;;;;;;6.70;1.90;;;19.20;1.00;;;;;;4967675;28;20583;-64
2021/07/07 06:55:31;;;;;;;9.03;2.30;;;19.30;99.90;;;;;;4972016;28;20208;-63
2021/07/07 06:57:57;;;;;;;12.47;2.50;;;19.40;99.90;;;;;;4972381;28;20215;-62
2021/07/07 07:00:25;;;;;;;11.70;2.40;;;19.60;99.90;;;;;;4972284;28;20216;-62
2021/07/07 07:02:51;;;;;;;13.33;2.67;;;19.60;99.90;;;;;;4972381;28;20232;-58
2021/07/07 07:05:20;;;;;;;7.83;2.40;;;19.60;99.90;;;;;;4972315;28;20637;-62
2021/07/07 07:07:48;;;;;;;6.47;1.93;;;19.70;99.90;;;;;;4972002;28;20232;-61
2021/07/07 07:10:15;;;;;;;7.97;1.90;;;19.80;99.90;;;;;;4972414;28;20213;-62
2021/07/07 07:12:42;;;;;;;5.47;1.90;;;19.80;99.90;;;;;;4972480;28;20204;-62
2021/07/07 07:15:11;;;;;;;6.40;2.23;;;19.90;99.90;;;;;;4972446;28;20208;-63
2021/07/07 07:17:38;;;;;;;5.60;2.00;;;19.90;99.90;;;;;;4972219;28;20287;-62
2021/07/07 07:20:08;;;;;;;7.10;2.23;;;19.90;99.90;;;;;;4972048;28;20222;-62
2021/07/07 07:22:35;;;;;;;6.57;2.17;;;19.80;99.90;;;;;;4972009;28;20755;-63
2021/07/07 07:25:04;;;;;;;7.47;2.37;;;19.70;99.90;;;;;;4975402;28;20212;-63
2021/07/07 07:27:31;;;;;;;7.57;1.90;;;19.70;99.90;;;;;;4975888;28;20677;-63
2021/07/07 07:29:58;;;;;;;5.63;1.80;;;19.80;99.90;;;;;;4975736;28;20255;-63
2021/07/07 07:32:25;;;;;;;8.23;1.83;;;19.90;99.90;;;;;;4975897;28;20216;-63
2021/07/07 07:34:51;;;;;;;7.83;2.53;;;20.00;99.90;;;;;;4975507;28;20255;-62
2021/07/07 07:37:24;;;;;;;6.20;2.03;;;20.10;99.90;;;;;;4975499;28;20719;-62
2021/07/07 07:39:52;;;;;;;5.73;1.90;;;20.30;99.90;;;;;;4975664;28;20299;-64
2021/07/07 07:42:20;;;;;;;5.30;1.93;;;20.30;99.90;;;;;;4975795;28;20235;-63
2021/07/07 07:44:48;;;;;;;4.43;2.00;;;20.20;99.90;;;;;;4975472;28;20283;-64
2021/07/07 07:47:16;;;;;;;6.83;2.00;;;20.20;99.90;;;;;;4977132;28;20224;-63
2021/07/07 07:49:43;;;;;;;5.07;2.07;;;20.40;99.90;;;;;;4975171;28;20216;-64
2021/07/07 07:52:10;;;;;;;7.47;1.97;;;20.50;99.90;;;;;;4975970;28;20209;-63
2021/07/07 07:54:37;;;;;;;9.13;2.17;;;20.60;99.90;;;;;;4975103;28;20205;-63
2021/07/07 07:57:04;;;;;;;8.53;2.10;;;20.50;99.90;;;;;;4975236;28;20236;-64
2021/07/07 07:59:32;;;;;;;10.03;2.20;;;20.40;99.90;;;;;;4975155;28;20263;-63
2021/07/07 08:01:59;;;;;;;3.70;2.13;;;20.10;99.90;;;;;;4975142;28;20212;-62
2021/07/07 08:04:25;;;;;;;7.77;2.30;;;20.10;99.90;;;;;;4976011;28;20236;-63
2021/07/07 08:06:52;;;;;;;10.93;2.27;;;20.10;99.90;;;;;;4977003;28;20286;-63
2021/07/07 08:09:18;;;;;;;6.87;1.87;;;20.30;99.90;;;;;;4976460;28;20251;-62
2021/07/07 08:11:46;;;;;;;6.10;1.93;;;20.60;99.90;;;;;;4975259;28;20216;-64
2021/07/07 08:14:12;;;;;;;8.33;3.07;;;20.70;99.90;;;;;;4974799;28;20247;-63
2021/07/07 08:16:40;;;;;;;4.47;1.77;;;20.70;99.90;;;;;;4974784;28;20286;-64
2021/07/07 08:19:07;;;;;;;6.13;1.90;;;21.00;99.90;;;;;;4974862;28;20262;-62
2021/07/07 08:21:33;;;;;;;6.17;2.20;;;21.10;99.90;;;;;;4975475;28;20216;-63
2021/07/07 08:24:03;;;;;;;7.77;1.90;;;21.10;99.90;;;;;;4974593;28;20287;-63
2021/07/07 08:26:29;;;;;;;5.13;2.40;;;21.20;99.90;;;;;;4975419;28;20224;-66
2021/07/07 08:28:58;;;;;;;5.73;2.00;;;21.20;99.90;;;;;;4976002;28;20786;-66
2021/07/07 08:31:24;;;;;;;11.33;2.23;;;20.90;99.90;;;;;;4982969;28;20658;-66
2021/07/07 08:33:53;;;;;;;4.37;1.90;;;20.80;99.90;;;;;;4978913;28;20258;-63
2021/07/07 08:36:22;;;;;;;9.07;2.50;;;20.90;99.90;;;;;;4973793;28;20246;-64
2021/07/07 08:38:49;;;;;;;5.07;2.30;;;21.20;99.90;;;;;;4975763;28;20231;-63
2021/07/07 08:41:16;;;;;;;8.27;2.00;;;21.40;99.90;;;;;;4976000;28;20201;-64
2021/07/07 08:43:44;;;;;;;6.47;2.20;;;21.40;99.90;;;;;;4976009;28;20220;-63
2021/07/07 08:46:10;;;;;;;8.13;2.63;;;21.60;99.90;;;;;;4974863;28;20287;-63
2021/07/07 08:48:37;;;;;;;6.50;2.07;;;21.80;99.90;;;;;;4974884;28;20674;-63
2021/07/07 08:51:06;;;;;;;6.40;2.33;;;21.70;99.90;;;;;;4970507;28;20208;-62
2021/07/07 08:53:33;;;;;;;8.17;2.13;;;21.80;99.90;;;;;;4974476;28;20204;-63
2021/07/07 08:56:00;;;;;;;6.93;1.70;;;22.00;99.90;;;;;;4974268;28;20232;-62
2021/07/07 08:58:26;;;;;;;5.77;2.00;;;22.10;99.90;;;;;;4973909;28;20224;-62
2021/07/07 09:00:53;;;;;;;6.80;2.03;;;22.30;99.90;;;;;;4974443;28;20212;-62
2021/07/07 09:03:20;;;;;;;4.93;1.83;;;22.40;99.90;;;;;;4974141;28;20228;-62
2021/07/07 09:05:53;;;;;;;9.50;2.20;;;22.30;99.90;;;;;;4974358;28;20629;-63
2021/07/07 09:08:29;;;;;;;6.80;1.93;;;22.40;99.90;;;;;;4973996;28;20204;-62
2021/07/07 09:10:57;;;;;;;5.03;2.00;;;22.50;99.90;;;;;;4973850;28;20688;-62
2021/07/07 09:13:24;;;;;;;5.87;1.80;;;22.40;99.90;;;;;;4973997;28;20205;-62
2021/07/07 09:15:52;;;;;;;5.20;1.97;;;22.40;99.90;;;;;;4973960;28;20319;-62
2021/07/07 09:18:23;;;;;;;4.83;1.70;;;22.40;99.90;;;;;;4973745;28;20235;-63
2021/07/07 09:20:50;;;;;;;4.90;2.00;;;22.40;99.90;;;;;;4973811;28;20212;-63
2021/07/07 09:23:20;;;;;;;7.80;2.37;;;22.40;99.90;;;;;;4973626;28;20204;-62
2021/07/07 09:25:54;;;;;;;7.07;2.10;;;22.40;99.90;;;;;;4973766;28;20208;-63
2021/07/07 09:28:23;;;;;;;7.13;1.83;;;22.60;99.90;;;;;;4973691;28;20215;-64
2021/07/07 09:30:51;;;;;;;6.07;1.83;;;22.90;99.90;;;;;;4973626;28;20204;-63
2021/07/07 09:33:17;;;;;;;4.20;1.63;;;23.10;99.90;;;;;;4973698;28;20208;-63
2021/07/07 09:35:44;;;;;;;6.93;1.77;;;23.10;99.90;;;;;;4973204;28;20578;-63
2021/07/07 09:38:11;;;;;;;6.40;1.70;;;23.30;99.90;;;;;;4973275;28;20220;-64
2021/07/07 09:40:43;;;;;;;4.40;1.70;;;23.30;99.90;;;;;;4973399;28;20282;-63
2021/07/07 09:43:11;;;;;;;5.47;2.00;;;23.30;99.90;;;;;;4973635;28;20243;-64
2021/07/07 09:45:47;;;;;;;6.83;2.03;;;23.40;99.90;;;;;;4973049;28;20205;-64
2021/07/07 09:48:16;;;;;;;4.93;1.80;;;23.20;99.90;;;;;;4973118;28;20677;-64
2021/07/07 09:50:44;;;;;;;6.30;2.00;;;23.10;99.90;;;;;;4973374;28;20208;-63
2021/07/07 09:53:12;;;;;;;4.93;1.60;;;23.10;99.90;;;;;;4973532;28;20212;-62
2021/07/07 09:55:39;;;;;;;6.47;2.07;;;23.10;99.90;;;;;;4972994;28;20792;-63
2021/07/07 09:58:06;;;;;;;9.77;1.73;;;23.00;99.90;;;;;;4973134;28;20286;-63
2021/07/07 10:00:38;;;;;;;5.50;1.60;;;22.80;99.90;;;;;;4972967;28;20204;-62
2021/07/07 10:03:07;;;;;;;5.23;1.73;;;22.70;99.90;;;;;;4973124;28;20303;-63
2021/07/07 10:05:39;;;;;;;6.70;1.67;;;22.70;99.90;;;;;;4973031;28;20348;-62
2021/07/07 10:08:07;;;;;;;4.57;1.70;;;22.60;99.90;;;;;;4973244;28;20221;-63
2021/07/07 10:10:35;;;;;;;18.73;2.30;;;22.70;99.90;;;;;;4972989;28;20259;-62
2021/07/07 10:13:02;;;;;;;4.97;1.83;;;22.80;99.90;;;;;;4973027;28;20212;-63
2021/07/07 10:15:29;;;;;;;6.80;1.77;;;22.90;99.90;;;;;;4972655;28;20209;-63
2021/07/07 10:17:57;;;;;;;7.83;2.00;;;23.00;99.90;;;;;;4972902;28;20212;-62
2021/07/07 10:20:24;;;;;;;8.17;1.70;;;23.30;99.90;;;;;;4973023;28;20259;-63
2021/07/07 10:22:51;;;;;;;5.40;1.77;;;23.50;99.90;;;;;;4972917;28;20213;-63
2021/07/07 10:25:22;;;;;;;6.70;1.87;;;23.60;99.90;;;;;;4972666;28;20224;-64
2021/07/07 10:27:49;;;;;;;10.00;2.43;;;23.60;99.90;;;;;;4972570;28;20225;-62
2021/07/07 10:30:17;;;;;;;7.53;1.70;;;23.50;99.90;;;;;;4972857;28;20216;-62
2021/07/07 10:33:10;;;;;;;7.27;1.67;;;23.40;99.90;;;;;;4973004;28;20213;-63
2021/07/07 10:35:36;;;;;;;7.10;2.00;;;23.50;99.90;;;;;;4972743;28;20211;-64
2021/07/07 10:38:05;;;;;;;3.13;1.67;;;23.80;99.90;;;;;;4972767;28;20208;-63
2021/07/07 10:40:34;;;;;;;6.63;1.90;;;24.10;99.90;;;;;;4972301;28;20679;-63
2021/07/07 10:43:01;;;;;;;4.70;1.50;;;24.40;99.90;;;;;;4972708;28;20688;-63
2021/07/07 10:45:35;;;;;;;4.47;1.70;;;24.60;99.90;;;;;;4972637;28;20303;-63
2021/07/07 10:48:28;;;;;;;10.33;1.90;;;24.50;99.90;;;;;;4972653;28;20263;-63
2021/07/07 10:50:57;;;;;;;6.67;1.50;;;24.20;99.90;;;;;;4962711;28;20263;-64
2021/07/07 10:53:27;;;;;;;4.67;1.57;;;24.20;99.90;;;;;;4972927;28;20212;-62
2021/07/07 10:55:54;;;;;;;6.00;1.80;;;24.00;99.90;;;;;;4972838;28;20224;-63
2021/07/07 10:58:29;;;;;;;6.20;2.20;;;23.40;99.90;;;;;;4972906;28;20576;-62
2021/07/07 11:00:56;;;;;;;5.47;2.00;;;23.20;99.90;;;;;;4976243;28;20890;-63
2021/07/07 11:03:32;;;;;;;10.47;2.30;;;23.10;99.90;;;;;;4976247;28;20216;-62
2021/07/07 11:06:21;;;;;;;11.27;2.13;;;23.20;99.90;;;;;;4976460;28;20303;-62
2021/07/07 11:08:49;;;;;;;6.60;1.93;;;23.20;99.90;;;;;;4976022;28;20338;-64
2021/07/07 11:11:23;;;;;;;5.70;2.00;;;23.30;99.90;;;;;;4976322;28;20586;-63
2021/07/07 11:13:52;;;;;;;3.33;1.80;;;23.10;99.90;;;;;;4975873;28;20219;-64
2021/07/07 11:16:21;;;;;;;11.27;2.67;;;22.90;99.90;;;;;;4976398;28;20232;-63
2021/07/07 11:18:48;;;;;;;6.90;1.97;;;22.70;99.90;;;;;;4975902;28;20632;-62
2021/07/07 11:21:18;;;;;;;6.47;2.40;;;22.90;99.90;;;;;;4976269;28;20219;-60
2021/07/07 11:23:45;;;;;;;9.07;2.00;;;22.60;99.90;;;;;;4975856;28;20208;-61
2021/07/07 11:26:13;;;;;;;5.57;2.17;;;22.70;99.90;;;;;;4975746;28;20641;-61
2021/07/07 11:28:42;;;;;;;4.07;2.00;;;22.70;99.90;;;;;;4975654;28;20208;-61
2021/07/07 11:31:09;;;;;;;6.93;2.23;;;22.90;99.90;;;;;;4975949;28;20695;-61
2021/07/07 11:33:35;;;;;;;6.80;2.37;;;22.80;99.90;;;;;;4975840;28;20267;-60
2021/07/07 11:36:02;;;;;;;6.73;1.83;;;22.80;99.90;;;;;;4975684;28;20655;-62
2021/07/07 11:38:31;;;;;;;6.07;2.20;;;22.80;99.90;;;;;;4975840;28;20231;-61
2021/07/07 11:40:58;;;;;;;6.63;2.33;;;23.10;99.90;;;;;;4976054;28;20212;-61
2021/07/07 11:43:27;;;;;;;10.23;2.10;;;23.30;99.90;;;;;;4975866;28;20216;-62
2021/07/07 11:45:56;;;;;;;9.17;2.00;;;23.30;99.90;;;;;;4975501;28;20232;-66
2021/07/07 11:48:26;;;;;;;5.43;1.70;;;23.20;99.90;;;;;;4975535;28;20279;-63
2021/07/07 11:50:56;;;;;;;8.13;2.40;;;23.30;99.90;;;;;;4975543;28;20303;-62
2021/07/07 11:53:23;;;;;;;7.43;1.83;;;23.60;99.90;;;;;;4975285;28;20692;-64
2021/07/07 11:55:59;;;;;;;7.10;1.50;;;23.90;99.90;;;;;;4975336;28;20217;-64
2021/07/07 11:58:30;;;;;;;6.43;2.07;;;23.60;99.90;;;;;;4975433;28;20251;-64
2021/07/07 12:00:58;;;;;;;7.27;2.27;;;23.60;99.90;;;;;;4975377;28;20639;-64
2021/07/07 12:03:26;;;;;;;9.17;2.70;;;23.50;99.90;;;;;;4975189;28;20208;-63
2021/07/07 12:05:56;;;;;;;5.87;2.30;;;23.30;99.90;;;;;;4974976;28;20236;-63
2021/07/07 12:08:26;;;;;;;8.87;2.43;;;23.20;99.90;;;;;;4975287;28;20220;-63
2021/07/07 12:11:02;;;;;;;9.80;2.10;;;23.00;99.90;;;;;;4974165;28;20705;-64
2021/07/07 12:13:31;;;;;;;8.90;2.40;;;22.90;99.90;;;;;;4974905;28;20258;-63
2021/07/07 12:16:22;;;;;;;5.90;2.13;;;22.80;99.90;;;;;;4975123;28;20231;-64
2021/07/07 12:18:50;;;;;;;5.00;1.67;;;23.10;99.90;;;;;;4974934;28;20235;-62
2021/07/07 12:21:39;;;;;;;7.60;1.77;;;23.60;99.90;;;;;;4975109;28;20216;-65
2021/07/07 12:24:08;;;;;;;3.47;1.80;;;24.10;99.90;;;;;;4974749;28;20215;-63
2021/07/07 12:26:37;;;;;;;7.63;1.83;;;24.30;99.90;;;;;;4974472;28;20728;-63
2021/07/07 12:29:06;;;;;;;4.67;1.40;;;24.30;99.90;;;;;;4974115;28;20256;-63
2021/07/07 12:31:37;;;;;;;5.60;1.60;;;24.20;99.90;;;;;;4974652;28;20212;-62
2021/07/07 12:34:05;;;;;;;5.73;1.70;;;24.40;99.90;;;;;;4974759;28;20212;-64
2021/07/07 12:36:34;;;;;;;5.70;1.97;;;24.60;99.90;;;;;;4974907;28;20243;-64
2021/07/07 12:39:15;;;;;;;7.27;1.80;;;24.40;99.90;;;;;;4973794;28;20216;-65
2021/07/07 12:41:45;;;;;;;4.90;1.70;;;24.50;99.90;;;;;;4972140;28;20216;-65
2021/07/07 12:44:15;;;;;;;5.57;1.90;;;24.50;99.90;;;;;;4971737;28;20235;-62
2021/07/07 12:46:54;;;;;;;5.87;1.47;;;24.60;99.90;;;;;;4971791;28;20286;-63
2021/07/07 12:49:47;;;;;;;3.47;1.47;;;24.40;99.90;;;;;;4971806;28;20212;-66
2021/07/07 12:52:23;;;;;;;5.13;1.40;;;24.70;99.90;;;;;;4974701;28;20212;-65
2021/07/07 12:55:10;;;;;;;4.90;1.53;;;24.70;99.90;;;;;;4971659;28;20592;-64